Time;durP1;ratioP1;P1;durP2;ratioP2;P2;SDS_P1;SDS_P2;PMS_P1;PMS_P2;Temp;Humidity;BMP_temperature;BMP_pressure;BME280_temperature;BME280_humidity;BME280_pressure;Samples;Min_cycle;Max_cycle;Signal;HPM_P1;HPM_P2
2023/10/07 00:02:14;;;;;;;13.18;5.07;;;16.40;99.90;;;;;;5075429;27;20100;-78
2023/10/07 00:05:00;;;;;;;13.80;4.88;;;16.30;99.90;;;;;;5075995;28;20040;-78
2023/10/07 00:07:46;;;;;;;11.52;4.10;;;16.30;99.90;;;;;;5067111;28;20040;-78
2023/10/07 00:10:36;;;;;;;10.10;4.47;;;16.30;99.90;;;;;;5081546;28;20090;-78
2023/10/07 00:13:23;;;;;;;12.48;5.00;;;16.40;99.90;;;;;;5095593;28;20039;-77
2023/10/07 00:16:17;;;;;;;10.38;3.97;;;16.40;99.90;;;;;;5066365;28;20047;-77
2023/10/07 00:19:03;;;;;;;12.80;4.78;;;16.40;99.90;;;;;;5099327;28;20044;-77
2023/10/07 00:21:59;;;;;;;10.07;4.60;;;16.40;99.90;;;;;;5076032;28;20477;-77
2023/10/07 00:24:48;;;;;;;8.32;4.40;;;16.40;99.90;;;;;;5077708;28;20040;-77
2023/10/07 00:27:40;;;;;;;13.80;4.80;;;16.40;99.90;;;;;;5065508;28;20569;-77
2023/10/07 00:30:30;;;;;;;14.02;4.68;;;16.40;99.90;;;;;;5090266;28;20499;-77
2023/10/07 00:33:22;;;;;;;8.95;4.50;;;16.40;99.90;;;;;;5095199;28;20047;-77
2023/10/07 00:36:20;;;;;;;12.10;4.80;;;16.40;99.90;;;;;;5084730;28;20337;-77
2023/10/07 00:39:07;;;;;;;9.98;4.80;;;16.40;99.90;;;;;;5079784;28;20032;-77
2023/10/07 00:41:59;;;;;;;16.70;5.05;;;16.40;99.90;;;;;;5084443;28;20380;-77
2023/10/07 00:44:47;;;;;;;12.55;4.93;;;16.40;99.90;;;;;;5075359;28;20092;-77
2023/10/07 00:47:34;;;;;;;9.30;3.80;;;16.30;99.90;;;;;;5083772;28;20369;-77
2023/10/07 00:50:22;;;;;;;16.40;5.05;;;16.40;99.90;;;;;;5056943;28;20043;-77
2023/10/07 00:53:09;;;;;;;11.93;4.63;;;16.30;99.90;;;;;;5078089;28;20040;-77
2023/10/07 00:55:55;;;;;;;9.82;4.45;;;16.30;99.90;;;;;;5088275;28;20039;-77
2023/10/07 00:58:42;;;;;;;11.88;5.03;;;16.30;99.90;;;;;;5079417;28;20133;-77
2023/10/07 01:01:29;;;;;;;12.25;4.60;;;16.30;99.90;;;;;;5071366;28;20117;-77
2023/10/07 01:04:16;;;;;;;13.15;4.15;;;16.40;99.90;;;;;;5097031;28;20413;-77
2023/10/07 01:07:03;;;;;;;9.60;4.50;;;16.30;99.90;;;;;;5109892;28;20031;-77
2023/10/07 01:10:14;;;;;;;11.25;3.90;;;16.40;99.90;;;;;;5057771;28;20043;-78
2023/10/07 01:13:03;;;;;;;14.35;4.78;;;16.30;99.90;;;;;;5085505;28;20085;-77
2023/10/07 01:15:50;;;;;;;12.35;4.60;;;16.30;99.90;;;;;;5078262;28;20051;-78
2023/10/07 01:18:38;;;;;;;14.45;4.70;;;16.40;99.90;;;;;;5076293;28;20039;-78
2023/10/07 01:21:34;;;;;;;11.23;4.38;;;16.40;99.90;;;;;;5057150;28;20117;-77
2023/10/07 01:30:17;;;;;;;7.80;3.80;;;16.40;99.90;;;;;;5100981;28;20540;-77
2023/10/07 01:36:20;;;;;;;11.73;4.00;;;16.40;99.90;;;;;;5104070;27;20453;-78
2023/10/07 01:39:06;;;;;;;13.48;4.90;;;16.30;99.90;;;;;;5095563;27;20043;-78
2023/10/07 01:41:52;;;;;;;13.93;4.70;;;16.30;99.90;;;;;;5082940;28;20032;-78
2023/10/07 01:44:39;;;;;;;12.52;4.13;;;16.30;99.90;;;;;;5089304;27;20053;-78
2023/10/07 01:47:25;;;;;;;12.50;4.50;;;16.30;99.90;;;;;;5066875;28;20036;-77
2023/10/07 01:50:11;;;;;;;8.45;3.78;;;16.30;99.90;;;;;;5104042;27;20080;-77
2023/10/07 01:52:58;;;;;;;13.32;3.97;;;16.30;99.90;;;;;;5072705;27;20043;-78
2023/10/07 01:55:45;;;;;;;9.88;4.30;;;16.30;99.90;;;;;;5072270;28;20048;-77
2023/10/07 01:58:31;;;;;;;13.20;4.55;;;16.30;99.90;;;;;;5101943;27;20777;-77
2023/10/07 02:01:20;;;;;;;13.43;4.15;;;16.30;99.90;;;;;;5058798;28;20050;-78
2023/10/07 02:04:11;;;;;;;8.30;3.45;;;16.30;99.90;;;;;;5113901;27;20042;-77
2023/10/07 02:06:58;;;;;;;12.02;3.72;;;16.30;99.90;;;;;;5080841;28;20035;-77
2023/10/07 02:09:44;;;;;;;8.90;4.10;;;16.30;99.90;;;;;;5069416;28;20051;-77
2023/10/07 02:12:32;;;;;;;11.23;4.18;;;16.30;99.90;;;;;;5082766;28;20046;-77
2023/10/07 02:15:19;;;;;;;9.02;4.25;;;16.30;99.90;;;;;;5073347;28;20142;-77
2023/10/07 02:18:12;;;;;;;13.73;4.15;;;16.30;99.90;;;;;;5102650;27;20088;-77
2023/10/07 02:21:07;;;;;;;11.30;3.97;;;16.20;99.90;;;;;;5097870;28;20062;-76
2023/10/07 02:23:52;;;;;;;11.13;4.32;;;16.20;99.90;;;;;;5114405;27;20126;-77
2023/10/07 02:26:43;;;;;;;11.18;4.43;;;16.20;99.90;;;;;;5073148;28;20565;-77
2023/10/07 02:29:29;;;;;;;10.20;4.47;;;16.20;99.90;;;;;;5096261;28;20054;-77
2023/10/07 02:32:17;;;;;;;12.52;4.40;;;16.20;99.90;;;;;;5092083;27;20035;-77
2023/10/07 02:35:08;;;;;;;11.55;4.20;;;16.20;99.90;;;;;;5084442;28;20047;-75
2023/10/07 02:37:57;;;;;;;15.73;4.70;;;16.20;99.90;;;;;;5088001;27;20031;-74
2023/10/07 02:40:49;;;;;;;14.98;4.45;;;16.20;99.90;;;;;;5099923;28;20050;-75
2023/10/07 02:43:35;;;;;;;11.80;4.32;;;16.20;99.90;;;;;;5099725;27;20024;-75
2023/10/07 02:46:31;;;;;;;12.40;4.53;;;16.20;99.90;;;;;;5099568;28;20039;-74
2023/10/07 02:49:20;;;;;;;11.63;5.03;;;16.10;99.90;;;;;;5084549;28;20469;-74
2023/10/07 02:52:16;;;;;;;10.57;4.43;;;16.20;99.90;;;;;;5064697;27;20131;-75
2023/10/07 02:58:06;;;;;;;9.20;4.10;;;16.20;99.90;;;;;;5082494;27;20043;-75
2023/10/07 03:00:52;;;;;;;9.30;4.47;;;16.20;99.90;;;;;;5069885;28;20036;-75
2023/10/07 03:03:41;;;;;;;11.48;4.40;;;16.20;99.90;;;;;;5074583;27;20367;-74
2023/10/07 03:06:28;;;;;;;10.07;4.30;;;16.20;99.90;;;;;;5097305;28;20046;-75
2023/10/07 03:09:18;;;;;;;8.45;4.35;;;16.20;99.90;;;;;;5080058;27;20047;-75
2023/10/07 03:12:04;;;;;;;16.80;5.57;;;16.10;99.90;;;;;;5100611;28;20118;-74
2023/10/07 03:14:51;;;;;;;9.20;4.40;;;16.20;99.90;;;;;;5082757;28;20050;-75
2023/10/07 03:17:39;;;;;;;13.07;4.75;;;16.10;99.90;;;;;;5083278;27;20529;-74
2023/10/07 03:20:28;;;;;;;10.73;4.78;;;16.10;99.90;;;;;;5084722;28;20050;-74
2023/10/07 03:23:15;;;;;;;12.95;4.55;;;16.10;99.90;;;;;;5112914;27;20035;-75
2023/10/07 03:28:54;;;;;;;12.63;4.63;;;16.10;99.90;;;;;;5087097;27;20040;-75
2023/10/07 03:34:26;;;;;;;9.52;4.72;;;16.10;99.90;;;;;;5095100;28;20506;-75
2023/10/07 03:43:08;;;;;;;9.65;4.30;;;16.10;99.90;;;;;;5101153;27;20105;-75
2023/10/07 03:45:55;;;;;;;10.50;4.38;;;16.10;99.90;;;;;;5089572;28;20046;-74
2023/10/07 03:48:43;;;;;;;12.93;4.90;;;16.10;99.90;;;;;;5070767;28;20043;-74
2023/10/07 03:51:30;;;;;;;;;;;16.10;99.90;;;;;;5094358;28;20125;-74
2023/10/07 03:54:22;;;;;;;9.37;4.43;;;16.10;99.90;;;;;;5095491;27;19915;-75
2023/10/07 03:57:08;;;;;;;8.02;3.80;;;16.10;99.90;;;;;;5074582;28;20855;-74
2023/10/07 03:59:55;;;;;;;9.35;4.25;;;16.10;99.90;;;;;;5084010;28;20075;-74
2023/10/07 04:02:44;;;;;;;9.77;4.33;;;16.10;99.90;;;;;;5097552;27;20036;-75
2023/10/07 04:05:33;;;;;;;13.80;4.78;;;16.10;99.90;;;;;;5082409;28;20035;-75
2023/10/07 04:08:19;;;;;;;9.75;4.50;;;16.10;99.90;;;;;;5085701;27;20043;-75
2023/10/07 04:11:13;;;;;;;9.60;4.55;;;16.10;99.90;;;;;;5080309;28;20031;-74
2023/10/07 04:14:06;;;;;;;10.93;4.68;;;16.10;99.90;;;;;;5072473;28;20050;-74
2023/10/07 04:16:53;;;;;;;12.05;4.85;;;16.10;99.90;;;;;;5072787;28;20051;-77
2023/10/07 04:19:48;;;;;;;9.43;4.32;;;16.10;99.90;;;;;;5099879;28;20034;-77
2023/10/07 04:22:35;;;;;;;8.60;4.72;;;16.00;99.90;;;;;;5071851;28;20039;-77
2023/10/07 04:25:24;;;;;;;15.30;5.80;;;15.80;99.90;;;;;;5082592;28;20118;-77
2023/10/07 04:28:13;;;;;;;13.00;5.43;;;15.80;99.90;;;;;;5071787;28;20119;-77
2023/10/07 04:30:59;;;;;;;10.70;5.20;;;15.70;99.90;;;;;;5083190;28;20486;-77
2023/10/07 04:33:53;;;;;;;12.48;6.05;;;15.70;99.90;;;;;;5070886;28;20096;-77
2023/10/07 04:37:08;;;;;;;14.43;6.13;;;15.70;99.90;;;;;;5073266;28;20036;-78
2023/10/07 04:42:39;;;;;;;10.68;5.97;;;15.50;99.90;;;;;;5077998;28;20059;-77
2023/10/07 04:45:36;;;;;;;18.10;6.15;;;15.40;99.90;;;;;;5083554;28;20038;-77
2023/10/07 04:48:40;;;;;;;11.15;6.03;;;15.40;99.90;;;;;;5081464;28;20054;-77
2023/10/07 04:51:48;;;;;;;13.52;6.82;;;15.40;99.90;;;;;;5074706;28;20112;-75
2023/10/07 04:54:35;;;;;;;15.32;7.90;;;15.30;99.90;;;;;;5096529;28;20127;-75
2023/10/07 04:57:42;;;;;;;12.70;7.43;;;15.20;99.90;;;;;;5099032;28;20491;-75
2023/10/07 05:03:16;;;;;;;14.90;9.63;;;15.00;99.90;;;;;;5087595;28;20043;-74
2023/10/07 05:06:04;;;;;;;14.75;8.93;;;15.00;99.90;;;;;;5087771;28;20035;-75
2023/10/07 05:08:51;;;;;;;19.35;10.32;;;14.90;99.90;;;;;;5078949;28;20066;-74
2023/10/07 05:11:40;;;;;;;20.00;9.95;;;14.80;99.90;;;;;;5088564;27;20132;-75
2023/10/07 05:14:26;;;;;;;13.82;9.65;;;14.80;99.90;;;;;;5096431;28;20452;-75
2023/10/07 05:17:12;;;;;;;16.25;10.32;;;14.70;99.90;;;;;;5073822;27;20051;-75
2023/10/07 05:19:58;;;;;;;18.38;10.02;;;14.70;99.90;;;;;;5067921;28;20078;-75
2023/10/07 05:22:46;;;;;;;13.80;10.48;;;14.70;99.90;;;;;;5098263;27;20221;-75
2023/10/07 05:25:35;;;;;;;17.67;12.47;;;14.70;99.90;;;;;;5091473;27;20032;-75
2023/10/07 05:28:21;;;;;;;14.63;10.52;;;14.70;99.90;;;;;;5105293;27;20442;-75
2023/10/07 05:31:08;;;;;;;20.30;11.55;;;14.80;99.90;;;;;;5087711;27;20031;-75
2023/10/07 05:33:54;;;;;;;14.40;10.88;;;14.70;99.90;;;;;;5085946;28;20418;-74
2023/10/07 05:36:40;;;;;;;15.95;10.85;;;14.70;99.90;;;;;;5102734;27;20050;-75
2023/10/07 05:39:26;;;;;;;15.65;11.75;;;14.80;99.90;;;;;;5092203;28;20509;-75
2023/10/07 05:42:12;;;;;;;15.75;11.20;;;14.80;99.90;;;;;;5090832;27;20047;-74
2023/10/07 05:44:59;;;;;;;22.67;13.25;;;14.80;99.90;;;;;;5084022;28;20150;-74
2023/10/07 05:47:45;;;;;;;18.02;12.15;;;14.80;99.90;;;;;;5086585;28;20071;-75
2023/10/07 05:50:32;;;;;;;18.33;12.63;;;14.80;99.90;;;;;;5098324;27;20043;-75
2023/10/07 05:53:18;;;;;;;19.13;13.15;;;14.90;99.90;;;;;;5099859;28;20046;-75
2023/10/07 05:56:07;;;;;;;21.30;13.05;;;14.90;99.90;;;;;;5082779;28;20040;-75
2023/10/07 05:58:54;;;;;;;19.98;12.18;;;14.90;99.90;;;;;;5087632;27;20368;-75
2023/10/07 06:01:41;;;;;;;18.45;13.20;;;14.90;99.90;;;;;;5099457;28;20126;-75
2023/10/07 06:04:30;;;;;;;21.23;12.55;;;14.90;99.90;;;;;;5086202;27;20092;-75
2023/10/07 06:07:21;;;;;;;16.27;13.35;;;15.00;99.90;;;;;;5066082;28;20044;-75
2023/10/07 06:10:12;;;;;;;16.08;13.10;;;15.00;99.90;;;;;;5089690;27;20118;-75
2023/10/07 06:12:58;;;;;;;17.05;12.43;;;15.00;99.90;;;;;;5104061;27;20053;-75
2023/10/07 06:15:45;;;;;;;17.42;12.55;;;15.00;99.90;;;;;;5072497;27;20043;-75
2023/10/07 06:18:34;;;;;;;21.73;12.98;;;15.00;99.90;;;;;;5083115;27;20034;-77
2023/10/07 06:21:27;;;;;;;16.00;12.65;;;15.00;99.90;;;;;;5072394;28;20110;-77
2023/10/07 06:24:20;;;;;;;17.60;12.98;;;15.00;99.90;;;;;;5086397;28;20115;-77
2023/10/07 06:27:11;;;;;;;18.75;12.90;;;15.00;99.90;;;;;;5070213;28;20051;-77
2023/10/07 06:29:57;;;;;;;20.92;12.82;;;15.10;99.90;;;;;;5065639;28;20503;-77
2023/10/07 06:32:55;;;;;;;19.48;13.52;;;15.10;99.90;;;;;;5086101;28;20039;-77
2023/10/07 06:35:41;;;;;;;17.30;13.77;;;15.10;99.90;;;;;;5085738;27;20039;-77
2023/10/07 06:38:27;;;;;;;19.60;14.27;;;15.10;99.90;;;;;;5082114;27;20035;-77
2023/10/07 06:41:13;;;;;;;22.05;14.00;;;15.10;99.90;;;;;;5067717;28;20082;-77
2023/10/07 06:43:59;;;;;;;17.60;14.15;;;15.20;99.90;;;;;;5075634;27;20050;-77
2023/10/07 06:46:46;;;;;;;20.27;14.50;;;15.10;99.90;;;;;;5066994;28;20050;-77
2023/10/07 06:49:39;;;;;;;20.90;14.77;;;15.20;99.90;;;;;;5103436;27;20072;-77
2023/10/07 06:52:25;;;;;;;18.23;14.07;;;15.20;99.90;;;;;;5069821;28;20100;-77
2023/10/07 06:55:15;;;;;;;17.45;14.15;;;15.20;99.90;;;;;;5069714;28;20048;-79
2023/10/07 06:58:04;;;;;;;20.48;14.98;;;15.20;99.90;;;;;;5078575;28;20434;-77
2023/10/07 07:00:56;;;;;;;20.50;14.25;;;15.20;99.90;;;;;;5067919;28;20358;-77
2023/10/07 07:03:42;;;;;;;19.13;14.80;;;15.20;99.90;;;;;;5064432;27;20518;-77
2023/10/07 07:06:34;;;;;;;19.73;14.75;;;15.20;99.90;;;;;;5075105;28;20058;-77
2023/10/07 07:12:26;;;;;;;21.08;16.15;;;15.30;99.90;;;;;;5102059;28;20040;-77
2023/10/07 07:15:26;;;;;;;23.60;16.60;;;15.30;99.90;;;;;;5078210;28;20036;-77
2023/10/07 07:18:14;;;;;;;23.05;17.35;;;15.30;99.90;;;;;;5069506;28;20040;-77
2023/10/07 07:21:00;;;;;;;21.63;15.77;;;15.30;99.90;;;;;;5085416;27;20122;-77
2023/10/07 07:23:49;;;;;;;23.33;15.93;;;15.30;99.90;;;;;;5100217;27;20039;-77
2023/10/07 07:26:38;;;;;;;20.13;15.30;;;15.30;99.90;;;;;;5095067;28;20040;-77
2023/10/07 07:29:25;;;;;;;22.77;16.67;;;15.30;99.90;;;;;;5099984;27;20047;-75
2023/10/07 07:32:17;;;;;;;24.83;18.20;;;15.30;99.90;;;;;;5075665;28;20036;-75
2023/10/07 07:35:03;;;;;;;22.67;17.35;;;15.30;99.90;;;;;;5099332;27;20048;-76
2023/10/07 07:37:52;;;;;;;25.70;18.10;;;15.30;99.90;;;;;;5077076;28;20056;-75
2023/10/07 07:40:41;;;;;;;23.30;17.27;;;15.40;99.90;;;;;;5109701;27;20071;-76
2023/10/07 07:43:27;;;;;;;23.88;17.27;;;15.40;99.90;;;;;;5062564;28;20472;-76
2023/10/07 07:46:26;;;;;;;23.00;17.00;;;15.40;99.90;;;;;;5069597;28;20043;-76
2023/10/07 07:49:12;;;;;;;24.20;17.52;;;15.40;99.90;;;;;;5077290;28;20059;-75
2023/10/07 07:52:00;;;;;;;26.83;17.88;;;15.40;99.90;;;;;;5090063;28;20104;-75
2023/10/07 07:54:46;;;;;;;30.10;19.38;;;15.40;99.90;;;;;;5088418;27;20431;-75
2023/10/07 07:57:32;;;;;;;29.02;18.20;;;15.40;99.90;;;;;;5069327;28;20089;-75
2023/10/07 08:00:20;;;;;;;26.17;19.60;;;15.50;99.90;;;;;;5098375;28;20067;-75
2023/10/07 08:03:07;;;;;;;27.30;18.83;;;15.50;99.90;;;;;;5105382;28;20479;-75
2023/10/07 08:05:54;;;;;;;25.23;18.05;;;15.50;99.90;;;;;;5066229;28;20047;-75
2023/10/07 08:08:40;;;;;;;28.77;19.23;;;15.50;99.90;;;;;;5075858;27;20048;-76
2023/10/07 08:11:26;;;;;;;26.45;20.02;;;15.50;99.90;;;;;;5063510;28;20461;-75
2023/10/07 08:14:14;;;;;;;28.70;19.48;;;15.50;99.90;;;;;;5070446;28;20039;-75
2023/10/07 08:17:00;;;;;;;;;;;15.50;99.90;;;;;;5111864;28;20047;-75
2023/10/07 08:19:52;;;;;;;31.85;20.35;;;15.50;99.90;;;;;;5095649;28;19912;-75
2023/10/07 08:22:45;;;;;;;30.95;19.98;;;15.60;99.90;;;;;;5091882;28;20043;-76
2023/10/07 08:25:45;;;;;;;39.53;20.48;;;15.60;99.90;;;;;;5062027;28;20470;-76
2023/10/07 08:31:37;;;;;;;32.67;20.58;;;15.60;99.90;;;;;;5086472;28;20035;-75
2023/10/07 08:34:31;;;;;;;28.75;20.25;;;15.60;99.90;;;;;;5060444;28;20518;-74
2023/10/07 08:37:17;;;;;;;27.50;18.42;;;15.70;99.90;;;;;;5098209;28;20032;-75
2023/10/07 08:40:14;;;;;;;27.00;19.90;;;15.70;99.90;;;;;;5079323;27;20472;-77
2023/10/07 08:43:00;;;;;;;31.40;21.47;;;15.80;99.90;;;;;;5067671;28;20031;-78
2023/10/07 08:45:48;;;;;;;37.05;20.95;;;15.80;99.90;;;;;;5071592;27;20093;-77
2023/10/07 08:48:38;;;;;;;29.75;19.77;;;15.70;99.90;;;;;;5100707;28;20364;-77
2023/10/07 08:51:24;;;;;;;28.58;19.73;;;15.80;99.90;;;;;;5086905;28;20601;-77
2023/10/07 08:54:11;;;;;;;28.77;19.45;;;15.80;99.90;;;;;;5073345;28;20070;-77
2023/10/07 08:57:01;;;;;;;31.40;19.92;;;15.80;99.90;;;;;;5083272;28;20360;-77
2023/10/07 08:59:52;;;;;;;30.25;20.17;;;15.80;99.90;;;;;;5080268;27;20040;-77
2023/10/07 09:02:40;;;;;;;27.77;19.65;;;15.80;99.90;;;;;;5075894;28;20464;-79
2023/10/07 09:05:29;;;;;;;27.83;18.48;;;15.80;99.90;;;;;;5068040;28;20040;-79
2023/10/07 09:08:15;;;;;;;30.17;19.52;;;15.80;99.90;;;;;;5089363;28;20035;-79
2023/10/07 09:11:08;;;;;;;26.30;18.98;;;15.80;99.90;;;;;;5087272;27;20535;-77
2023/10/07 09:13:55;;;;;;;27.58;18.20;;;15.80;99.90;;;;;;5082774;28;20047;-77
2023/10/07 09:16:42;;;;;;;27.73;19.87;;;15.80;99.90;;;;;;5057337;28;20048;-77
2023/10/07 09:19:29;;;;;;;29.65;19.65;;;15.80;99.90;;;;;;5072891;28;20490;-77
2023/10/07 09:22:18;;;;;;;27.75;20.13;;;15.90;99.90;;;;;;5099809;28;20528;-77
2023/10/07 09:25:28;;;;;;;32.63;19.70;;;15.90;99.90;;;;;;5100739;27;20039;-77
2023/10/07 09:28:15;;;;;;;;;;;15.90;99.90;;;;;;5076385;28;20100;-77
2023/10/07 09:31:06;;;;;;;34.90;18.38;;;15.90;99.90;;;;;;5073749;28;19911;-77
2023/10/07 09:33:51;;;;;;;27.75;19.60;;;15.90;99.90;;;;;;5078226;28;20031;-77
2023/10/07 09:36:40;;;;;;;29.02;18.90;;;16.00;99.90;;;;;;5087178;28;20044;-76
2023/10/07 09:39:34;;;;;;;;;;;16.00;99.90;;;;;;5113836;28;20144;-78
2023/10/07 09:42:26;;;;;;;23.15;16.50;;;16.00;99.90;;;;;;5088204;28;19922;-77
2023/10/07 09:45:17;;;;;;;27.33;16.88;;;16.10;99.90;;;;;;5063395;28;20032;-78
2023/10/07 09:48:05;;;;;;;25.48;16.60;;;16.10;99.90;;;;;;5082812;28;20375;-77
2023/10/07 09:50:55;;;;;;;21.75;15.55;;;16.20;99.90;;;;;;5110187;28;20039;-78
2023/10/07 09:53:59;;;;;;;28.17;17.40;;;16.20;99.90;;;;;;5085965;28;20416;-78
2023/10/07 09:57:19;;;;;;;23.25;16.08;;;16.30;99.90;;;;;;5105225;28;20357;-78
2023/10/07 10:04:11;;;;;;;25.42;15.00;;;16.40;99.90;;;;;;5104196;28;20353;-77
2023/10/07 10:07:32;;;;;;;25.05;16.83;;;16.40;99.90;;;;;;5076934;28;20043;-78
2023/10/07 10:10:30;;;;;;;24.50;14.68;;;16.50;99.90;;;;;;5098309;28;20057;-78
2023/10/07 10:16:38;;;;;;;23.40;14.02;;;16.60;99.90;;;;;;5082612;28;20493;-77
2023/10/07 10:19:25;;;;;;;22.05;13.85;;;16.60;99.90;;;;;;5109863;28;20035;-76
2023/10/07 10:22:12;;;;;;;21.92;13.27;;;16.70;99.90;;;;;;5091850;28;20096;-76
2023/10/07 10:25:09;;;;;;;22.87;13.00;;;16.70;99.90;;;;;;5070914;28;20035;-76
2023/10/07 10:28:01;;;;;;;25.13;13.18;;;16.80;99.90;;;;;;5035809;28;1461049;-77
2023/10/07 10:30:53;;;;;;;21.95;14.38;;;16.80;99.90;;;;;;5075611;28;20051;-78
2023/10/07 10:33:39;;;;;;;21.92;12.77;;;16.80;99.90;;;;;;5089238;27;20039;-78
2023/10/07 10:36:25;;;;;;;21.08;12.45;;;16.80;99.90;;;;;;5079682;28;20365;-78
2023/10/07 10:39:31;;;;;;;21.02;13.43;;;16.90;99.90;;;;;;5105361;27;20114;-77
2023/10/07 10:42:17;;;;;;;24.40;14.15;;;16.90;99.90;;;;;;5084285;27;20412;-77
2023/10/07 10:45:03;;;;;;;24.25;13.68;;;16.90;99.90;;;;;;5061402;28;20039;-77
2023/10/07 10:47:53;;;;;;;24.60;13.23;;;17.00;99.90;;;;;;5079884;28;20412;-77
2023/10/07 10:50:40;;;;;;;19.08;13.10;;;17.00;99.90;;;;;;5093928;28;20097;-77
2023/10/07 10:53:27;;;;;;;19.90;13.40;;;17.00;99.90;;;;;;5078409;27;20039;-77
2023/10/07 10:56:13;;;;;;;22.13;13.05;;;17.10;99.90;;;;;;5095316;28;20308;-77
2023/10/07 10:58:59;;;;;;;24.02;13.90;;;17.10;99.90;;;;;;5067488;28;20373;-77
2023/10/07 11:01:49;;;;;;;23.95;13.23;;;17.10;99.90;;;;;;5063951;27;20035;-77
2023/10/07 11:04:35;;;;;;;22.38;12.70;;;17.20;99.90;;;;;;5072645;28;20046;-77
2023/10/07 11:07:25;;;;;;;22.48;12.38;;;17.20;99.90;;;;;;5075753;27;20624;-77
2023/10/07 11:10:11;;;;;;;21.27;12.88;;;17.20;99.90;;;;;;5088825;28;20043;-77
2023/10/07 11:12:57;;;;;;;23.38;12.80;;;17.30;99.90;;;;;;5073664;27;20062;-77
2023/10/07 11:16:10;;;;;;;20.27;12.85;;;17.30;99.90;;;;;;5062286;28;20054;-77
2023/10/07 11:18:57;;;;;;;20.55;12.15;;;17.30;99.90;;;;;;5089088;27;20034;-77
2023/10/07 11:21:45;;;;;;;18.65;11.95;;;17.30;99.90;;;;;;5068262;28;20112;-77
2023/10/07 11:24:34;;;;;;;23.08;12.68;;;17.30;99.90;;;;;;5081560;28;20071;-77
2023/10/07 11:27:23;;;;;;;19.95;12.32;;;17.30;99.90;;;;;;5056285;28;20121;-77
2023/10/07 11:30:11;;;;;;;22.08;12.88;;;17.30;99.90;;;;;;5097737;28;20044;-77
2023/10/07 11:32:57;;;;;;;;;;;17.40;99.90;;;;;;5071820;27;20046;-77
2023/10/07 11:35:46;;;;;;;16.33;11.98;;;17.40;99.90;;;;;;5071108;28;19915;-77
2023/10/07 11:38:32;;;;;;;18.63;12.88;;;17.40;99.90;;;;;;5098002;28;20046;-77
2023/10/07 11:41:18;;;;;;;21.25;13.15;;;17.40;99.90;;;;;;5064264;28;20132;-77
2023/10/07 11:44:04;;;;;;;19.75;13.35;;;17.40;99.90;;;;;;5075541;28;20096;-77
2023/10/07 11:46:50;;;;;;;20.95;13.13;;;17.40;99.90;;;;;;5070565;28;20487;-77
2023/10/07 11:49:37;;;;;;;20.83;14.18;;;17.50;99.90;;;;;;5078846;28;20108;-77
2023/10/07 11:52:23;;;;;;;21.25;14.15;;;17.50;99.90;;;;;;5070321;27;20091;-77
2023/10/07 11:55:09;;;;;;;21.50;14.40;;;17.50;99.90;;;;;;5077232;28;20514;-77
2023/10/07 11:58:00;;;;;;;21.85;14.40;;;17.60;99.90;;;;;;5093256;28;20413;-77
2023/10/07 12:00:46;;;;;;;19.95;14.85;;;17.60;99.90;;;;;;5081092;27;20134;-77
2023/10/07 12:03:32;;;;;;;24.17;15.13;;;17.60;99.90;;;;;;5063767;28;20032;-77
2023/10/07 12:06:18;;;;;;;23.08;15.02;;;17.60;99.90;;;;;;5067377;27;20081;-77
2023/10/07 12:09:07;;;;;;;20.35;13.82;;;17.60;99.90;;;;;;5069592;28;20077;-77
2023/10/07 12:11:53;;;;;;;19.13;13.60;;;17.70;99.90;;;;;;5065379;28;20418;-77
2023/10/07 12:14:39;;;;;;;23.77;13.93;;;17.70;99.90;;;;;;5089470;28;20047;-77
2023/10/07 12:17:25;;;;;;;21.50;14.85;;;17.70;99.90;;;;;;5074857;28;20070;-76
2023/10/07 12:20:20;;;;;;;19.65;13.52;;;17.70;99.90;;;;;;5071244;28;20039;-76
2023/10/07 12:23:07;;;;;;;18.15;12.93;;;17.80;99.90;;;;;;5085586;28;20032;-75
2023/10/07 12:25:53;;;;;;;15.50;12.63;;;17.80;99.90;;;;;;5081555;28;20035;-75
2023/10/07 12:28:39;;;;;;;17.45;12.68;;;17.90;99.90;;;;;;5083271;28;20551;-76
2023/10/07 12:31:27;;;;;;;16.77;11.95;;;17.90;99.90;;;;;;5079850;28;20050;-75
2023/10/07 12:34:13;;;;;;;20.17;13.30;;;18.00;99.90;;;;;;5083554;28;20032;-75
2023/10/07 12:36:59;;;;;;;19.67;12.43;;;18.00;99.90;;;;;;5075988;28;20059;-75
2023/10/07 12:39:49;;;;;;;20.15;13.38;;;18.00;99.90;;;;;;5096982;28;20401;-76
2023/10/07 12:42:35;;;;;;;19.92;12.60;;;18.10;99.90;;;;;;5084595;28;20089;-75
2023/10/07 12:45:30;;;;;;;19.38;11.93;;;18.10;99.90;;;;;;5168720;22;20059;-78
2023/10/07 12:48:18;;;;;;;15.18;11.50;;;18.10;99.90;;;;;;5043218;28;20381;-74
2023/10/07 12:51:04;;;;;;;15.30;11.25;;;18.10;99.90;;;;;;5051368;28;20457;-74
2023/10/07 12:53:55;;;;;;;17.52;12.43;;;18.00;99.90;;;;;;5057749;28;20068;-74
2023/10/07 12:56:46;;;;;;;15.32;11.10;;;18.10;99.90;;;;;;5050700;28;20043;-75
2023/10/07 12:59:35;;;;;;;25.90;13.13;;;18.10;99.90;;;;;;5040378;28;20067;-74
2023/10/07 13:02:23;;;;;;;18.30;12.23;;;18.10;99.90;;;;;;5039916;28;20043;-74
2023/10/07 13:05:09;;;;;;;15.02;11.25;;;18.10;99.90;;;;;;5065978;28;20106;-75
2023/10/07 13:07:56;;;;;;;18.98;12.20;;;18.10;99.90;;;;;;5066649;28;20040;-75
2023/10/07 13:10:42;;;;;;;16.30;12.57;;;18.20;99.90;;;;;;5053314;28;20080;-74
2023/10/07 13:13:29;;;;;;;17.23;12.23;;;18.20;99.90;;;;;;5032995;28;20122;-74
2023/10/07 13:16:15;;;;;;;16.15;12.95;;;18.30;99.90;;;;;;5045860;28;20052;-73
2023/10/07 13:19:01;;;;;;;15.85;10.95;;;18.30;99.90;;;;;;5054696;28;20052;-75
2023/10/07 13:21:47;;;;;;;14.95;11.23;;;18.30;99.90;;;;;;5046659;28;20381;-74
2023/10/07 13:24:34;;;;;;;14.38;11.68;;;18.40;99.90;;;;;;5070369;28;20101;-74
2023/10/07 13:27:20;;;;;;;14.38;10.85;;;18.50;99.90;;;;;;5062446;28;20056;-75
2023/10/07 13:30:12;;;;;;;12.05;10.07;;;18.50;99.90;;;;;;5053816;28;20040;-74
2023/10/07 13:32:58;;;;;;;12.02;9.85;;;18.60;99.90;;;;;;5053475;28;20036;-74
2023/10/07 13:35:45;;;;;;;12.23;10.00;;;18.60;99.90;;;;;;5050647;28;20466;-74
2023/10/07 13:38:31;;;;;;;15.00;9.68;;;18.70;99.90;;;;;;5051725;28;20056;-73
2023/10/07 13:41:17;;;;;;;12.95;9.18;;;18.70;99.90;;;;;;5056488;28;20044;-74
2023/10/07 13:44:09;;;;;;;16.80;8.50;;;18.80;99.90;;;;;;5058807;28;20487;-75
2023/10/07 13:46:55;;;;;;;14.23;8.93;;;18.80;99.90;;;;;;5049151;28;20126;-75
2023/10/07 13:49:45;;;;;;;10.38;8.43;;;18.80;99.90;;;;;;5043179;28;20505;-75
2023/10/07 13:52:40;;;;;;;9.30;7.07;;;18.80;99.90;;;;;;5055825;28;20606;-75
2023/10/07 13:55:33;;;;;;;12.23;6.95;;;18.90;99.90;;;;;;5069439;28;20040;-74
2023/10/07 13:58:20;;;;;;;11.07;6.85;;;18.90;99.90;;;;;;5067190;28;20115;-74
2023/10/07 14:01:08;;;;;;;8.95;6.00;;;18.90;99.90;;;;;;5057158;28;20113;-74
2023/10/07 14:03:54;;;;;;;9.63;5.88;;;18.90;99.90;;;;;;5057189;28;20040;-74
2023/10/07 14:06:41;;;;;;;8.55;5.18;;;18.90;99.90;;;;;;5067313;28;20041;-75
2023/10/07 14:09:31;;;;;;;10.07;6.03;;;18.90;99.90;;;;;;5041553;28;20044;-75
2023/10/07 14:12:17;;;;;;;10.38;5.22;;;19.00;99.90;;;;;;5043987;28;20055;-75
2023/10/07 14:15:05;;;;;;;13.82;5.18;;;19.00;99.90;;;;;;5049098;28;20157;-74
2023/10/07 14:17:53;;;;;;;9.43;4.88;;;19.10;99.90;;;;;;5059185;28;20447;-74
2023/10/07 14:20:41;;;;;;;9.32;4.95;;;19.10;99.90;;;;;;5057785;28;20033;-74
2023/10/07 14:23:30;;;;;;;9.52;4.15;;;19.20;99.90;;;;;;5054245;28;20036;-75
2023/10/07 14:26:17;;;;;;;9.48;4.35;;;19.30;99.90;;;;;;5064918;28;20037;-74
2023/10/07 14:29:07;;;;;;;8.80;4.13;;;19.40;99.90;;;;;;5042928;28;20037;-75
2023/10/07 14:31:53;;;;;;;10.38;3.88;;;19.70;99.90;;;;;;5055549;28;20495;-75
2023/10/07 14:34:40;;;;;;;12.95;3.85;;;19.70;99.90;;;;;;5032542;28;20048;-77
2023/10/07 14:37:26;;;;;;;7.43;3.90;;;19.70;99.90;;;;;;5052686;28;20037;-78
2023/10/07 14:40:17;;;;;;;11.68;4.15;;;19.60;99.90;;;;;;5046242;28;20133;-76
2023/10/07 14:43:04;;;;;;;10.13;4.28;;;19.70;99.90;;;;;;5065942;28;20036;-77
2023/10/07 14:45:52;;;;;;;9.07;3.95;;;19.70;99.90;;;;;;5047502;28;20353;-77
2023/10/07 14:48:45;;;;;;;12.00;4.43;;;19.60;99.90;;;;;;5074565;28;20040;-77
2023/10/07 14:51:32;;;;;;;10.73;3.75;;;19.50;99.90;;;;;;5074381;28;20044;-77
2023/10/07 14:54:18;;;;;;;10.20;3.95;;;19.40;99.90;;;;;;5076533;28;20048;-76
2023/10/07 14:57:04;;;;;;;9.63;4.45;;;19.40;99.90;;;;;;5070194;28;20048;-76
2023/10/07 14:59:50;;;;;;;9.75;3.45;;;19.40;99.90;;;;;;5069761;28;20036;-76
2023/10/07 15:02:38;;;;;;;8.15;3.75;;;19.30;99.90;;;;;;5082882;28;20405;-76
2023/10/07 15:05:27;;;;;;;;;;;19.30;99.90;;;;;;5080468;28;20032;-77
2023/10/07 15:08:16;;;;;;;8.48;3.60;;;19.30;99.90;;;;;;5089538;28;20315;-76